sensor_id;sensor_type;location;lat;lon;timestamp;pressure;altitude;pressure_sealevel;temperature;humidity
59690;BME280;45557;50.298;18.930;2022-10-18T00:05:49;99388.88;;;13.03;66.01
59690;BME280;45557;50.298;18.930;2022-10-18T00:12:27;99392.94;;;13.03;65.68
59690;BME280;45557;50.298;18.930;2022-10-18T00:19:10;99394.96;;;13.05;65.52
59690;BME280;45557;50.298;18.930;2022-10-18T00:25:14;99393.31;;;13.11;65.21
59690;BME280;45557;50.298;18.930;2022-10-18T00:31:58;99393.64;;;13.14;65.04
59690;BME280;45557;50.298;18.930;2022-10-18T00:38:41;99385.95;;;13.15;64.88
59690;BME280;45557;50.298;18.930;2022-10-18T00:45:30;99378.41;;;13.10;64.80
59690;BME280;45557;50.298;18.930;2022-10-18T00:52:27;99374.23;;;13.03;64.85
59690;BME280;45557;50.298;18.930;2022-10-18T00:59:06;99371.75;;;12.93;64.84
59690;BME280;45557;50.298;18.930;2022-10-18T01:05:48;99372.23;;;12.84;65.01
59690;BME280;45557;50.298;18.930;2022-10-18T01:26:25;99367.64;;;12.78;65.25
59690;BME280;45557;50.298;18.930;2022-10-18T01:39:51;99352.77;;;12.59;65.66
59690;BME280;45557;50.298;18.930;2022-10-18T01:46:34;99350.04;;;12.49;65.79
59690;BME280;45557;50.298;18.930;2022-10-18T01:53:21;99351.05;;;12.42;65.90
59690;BME280;45557;50.298;18.930;2022-10-18T02:06:57;99344.19;;;12.40;66.06
59690;BME280;45557;50.298;18.930;2022-10-18T02:13:40;99339.98;;;12.37;66.25
59690;BME280;45557;50.298;18.930;2022-10-18T02:20:23;99340.45;;;12.31;66.12
59690;BME280;45557;50.298;18.930;2022-10-18T02:27:05;99333.04;;;12.24;66.20
59690;BME280;45557;50.298;18.930;2022-10-18T02:33:50;99318.74;;;12.18;66.28
59690;BME280;45557;50.298;18.930;2022-10-18T02:40:32;99325.05;;;12.09;66.40
59690;BME280;45557;50.298;18.930;2022-10-18T02:47:19;99320.09;;;12.08;66.63
59690;BME280;45557;50.298;18.930;2022-10-18T02:53:59;99314.05;;;12.05;66.65
59690;BME280;45557;50.298;18.930;2022-10-18T03:00:43;99301.23;;;11.95;66.74
59690;BME280;45557;50.298;18.930;2022-10-18T03:07:28;99306.22;;;11.84;66.83
59690;BME280;45557;50.298;18.930;2022-10-18T03:14:11;99308.62;;;11.71;67.12
59690;BME280;45557;50.298;18.930;2022-10-18T03:20:54;99300.93;;;11.71;67.46
59690;BME280;45557;50.298;18.930;2022-10-18T03:27:37;99306.53;;;11.77;67.45
59690;BME280;45557;50.298;18.930;2022-10-18T03:34:20;99314.15;;;11.65;67.29
59690;BME280;45557;50.298;18.930;2022-10-18T03:41:03;99315.35;;;11.31;68.24
59690;BME280;45557;50.298;18.930;2022-10-18T03:47:47;99311.52;;;11.28;68.73
59690;BME280;45557;50.298;18.930;2022-10-18T03:54:30;99317.19;;;11.38;68.58
59690;BME280;45557;50.298;18.930;2022-10-18T04:01:13;99321.41;;;11.48;68.26
59690;BME280;45557;50.298;18.930;2022-10-18T04:07:56;99326.13;;;11.54;68.26
59690;BME280;45557;50.298;18.930;2022-10-18T04:14:42;99328.67;;;11.55;68.11
59690;BME280;45557;50.298;18.930;2022-10-18T04:21:25;99326.73;;;11.52;68.08
59690;BME280;45557;50.298;18.930;2022-10-18T04:28:13;99332.41;;;11.46;68.14
59690;BME280;45557;50.298;18.930;2022-10-18T04:34:58;99331.39;;;11.44;67.92
59690;BME280;45557;50.298;18.930;2022-10-18T04:41:41;99333.77;;;11.36;68.02
59690;BME280;45557;50.298;18.930;2022-10-18T04:48:28;99322.88;;;11.25;68.66
59690;BME280;45557;50.298;18.930;2022-10-18T04:55:15;99328.67;;;11.11;68.84
59690;BME280;45557;50.298;18.930;2022-10-18T05:02:02;99322.02;;;11.12;69.13
59690;BME280;45557;50.298;18.930;2022-10-18T05:08:45;99314.56;;;11.16;69.27
59690;BME280;45557;50.298;18.930;2022-10-18T05:15:37;99313.10;;;11.18;69.33
59690;BME280;45557;50.298;18.930;2022-10-18T05:22:29;99321.30;;;11.15;69.30
59690;BME280;45557;50.298;18.930;2022-10-18T05:29:22;99319.35;;;11.06;69.67
59690;BME280;45557;50.298;18.930;2022-10-18T05:36:14;99323.59;;;11.27;69.89
59690;BME280;45557;50.298;18.930;2022-10-18T05:43:00;99321.92;;;11.44;69.42
59690;BME280;45557;50.298;18.930;2022-10-18T05:49:11;99321.21;;;11.59;69.23
59690;BME280;45557;50.298;18.930;2022-10-18T05:54:34;99321.58;;;11.70;68.76
59690;BME280;45557;50.298;18.930;2022-10-18T06:00:08;99324.22;;;11.81;68.50
59690;BME280;45557;50.298;18.930;2022-10-18T06:05:37;99322.71;;;11.96;68.27
59690;BME280;45557;50.298;18.930;2022-10-18T06:11:06;99328.52;;;12.09;67.99
59690;BME280;45557;50.298;18.930;2022-10-18T06:16:48;99324.82;;;12.20;67.65
59690;BME280;45557;50.298;18.930;2022-10-18T06:22:24;99315.55;;;12.31;67.28
59690;BME280;45557;50.298;18.930;2022-10-18T06:28:11;99314.83;;;12.42;66.87
59690;BME280;45557;50.298;18.930;2022-10-18T06:33:35;99314.44;;;12.53;66.64
59690;BME280;45557;50.298;18.930;2022-10-18T06:38:58;99315.23;;;12.64;66.62
59690;BME280;45557;50.298;18.930;2022-10-18T06:44:23;99320.45;;;12.79;66.29
59690;BME280;45557;50.298;18.930;2022-10-18T06:50:06;99320.25;;;12.96;65.60
59690;BME280;45557;50.298;18.930;2022-10-18T06:55:58;99318.90;;;13.22;64.96
59690;BME280;45557;50.298;18.930;2022-10-18T07:02:40;99317.66;;;13.53;64.21
59690;BME280;45557;50.298;18.930;2022-10-18T07:09:23;99315.70;;;13.75;63.29
59690;BME280;45557;50.298;18.930;2022-10-18T07:22:54;99317.31;;;14.21;60.64
59690;BME280;45557;50.298;18.930;2022-10-18T07:29:33;99321.34;;;14.46;59.70
59690;BME280;45557;50.298;18.930;2022-10-18T07:36:15;99320.05;;;14.66;58.61
59690;BME280;45557;50.298;18.930;2022-10-18T07:42:58;99314.77;;;14.86;58.18
59690;BME280;45557;50.298;18.930;2022-10-18T07:49:40;99314.52;;;15.06;57.77
59690;BME280;45557;50.298;18.930;2022-10-18T07:56:05;99309.51;;;15.26;56.89
59690;BME280;45557;50.298;18.930;2022-10-18T08:02:48;99301.95;;;15.47;56.80
59690;BME280;45557;50.298;18.930;2022-10-18T08:09:31;99294.09;;;15.69;55.92
59690;BME280;45557;50.298;18.930;2022-10-18T08:16:23;99291.02;;;15.86;55.07
59690;BME280;45557;50.298;18.930;2022-10-18T08:23:06;99289.31;;;16.06;54.25
59690;BME280;45557;50.298;18.930;2022-10-18T08:29:49;99281.77;;;16.26;53.01
59690;BME280;45557;50.298;18.930;2022-10-18T08:36:31;99267.80;;;16.44;52.07
59690;BME280;45557;50.298;18.930;2022-10-18T08:43:37;99267.11;;;16.64;51.05
59690;BME280;45557;50.298;18.930;2022-10-18T08:56:33;99255.64;;;17.02;49.30
59690;BME280;45557;50.298;18.930;2022-10-18T09:36:09;99228.91;;;18.59;49.40
59690;BME280;45557;50.298;18.930;2022-10-18T09:43:01;99217.09;;;19.09;50.61
59690;BME280;45557;50.298;18.930;2022-10-18T09:49:53;99218.90;;;19.51;46.65
59690;BME280;45557;50.298;18.930;2022-10-18T09:56:57;99207.38;;;19.92;47.65
59690;BME280;45557;50.298;18.930;2022-10-18T10:03:47;99199.29;;;20.22;44.97
59690;BME280;45557;50.298;18.930;2022-10-18T10:10:57;99192.91;;;20.47;43.88
59690;BME280;45557;50.298;18.930;2022-10-18T10:17:46;99183.92;;;20.65;43.21
59690;BME280;45557;50.298;18.930;2022-10-18T10:24:49;99174.84;;;20.73;40.30
59690;BME280;45557;50.298;18.930;2022-10-18T10:31:43;99161.46;;;20.77;39.80
59690;BME280;45557;50.298;18.930;2022-10-18T12:34:24;98971.48;;;21.20;37.94
59690;BME280;45557;50.298;18.930;2022-10-18T12:54:24;98947.84;;;21.79;37.54
59690;BME280;45557;50.298;18.930;2022-10-18T13:00:54;98940.77;;;21.93;37.67
59690;BME280;45557;50.298;18.930;2022-10-18T13:07:47;98934.27;;;21.99;37.74
59690;BME280;45557;50.298;18.930;2022-10-18T13:27:30;98921.46;;;22.08;38.22
59690;BME280;45557;50.298;18.930;2022-10-18T13:33:32;98916.21;;;22.06;38.42
59690;BME280;45557;50.298;18.930;2022-10-18T13:39:01;98909.39;;;22.15;38.66
59690;BME280;45557;50.298;18.930;2022-10-18T13:44:46;98902.52;;;22.21;38.62
59690;BME280;45557;50.298;18.930;2022-10-18T13:51:41;98891.75;;;22.16;38.55
59690;BME280;45557;50.298;18.930;2022-10-18T14:11:29;98893.16;;;21.77;39.31
59690;BME280;45557;50.298;18.930;2022-10-18T14:18:03;98886.95;;;21.70;39.61
59690;BME280;45557;50.298;18.930;2022-10-18T14:24:12;98885.34;;;21.61;39.70
59690;BME280;45557;50.298;18.930;2022-10-18T14:30:54;98877.52;;;21.49;40.17
59690;BME280;45557;50.298;18.930;2022-10-18T14:37:27;98873.06;;;21.43;40.49
59690;BME280;45557;50.298;18.930;2022-10-18T14:43:17;98863.11;;;21.39;39.99
59690;BME280;45557;50.298;18.930;2022-10-18T14:49:44;98851.55;;;21.22;40.23
59690;BME280;45557;50.298;18.930;2022-10-18T15:02:43;98833.08;;;20.57;41.61
59690;BME280;45557;50.298;18.930;2022-10-18T15:09:04;98832.84;;;20.32;42.08
59690;BME280;45557;50.298;18.930;2022-10-18T15:15:26;98837.10;;;19.94;42.81
59690;BME280;45557;50.298;18.930;2022-10-18T15:21:27;98826.82;;;19.54;43.71
59690;BME280;45557;50.298;18.930;2022-10-18T15:28:30;98818.89;;;19.12;44.76
59690;BME280;45557;50.298;18.930;2022-10-18T15:42:01;98807.42;;;18.50;46.57
59690;BME280;45557;50.298;18.930;2022-10-18T15:48:43;98810.16;;;18.22;47.37
59690;BME280;45557;50.298;18.930;2022-10-18T15:55:44;98812.55;;;18.00;48.34
59690;BME280;45557;50.298;18.930;2022-10-18T16:02:24;98810.92;;;17.81;48.84
59690;BME280;45557;50.298;18.930;2022-10-18T16:09:11;98818.96;;;17.64;49.45
59690;BME280;45557;50.298;18.930;2022-10-18T16:15:52;98825.08;;;17.50;50.12
59690;BME280;45557;50.298;18.930;2022-10-18T16:22:34;98826.05;;;17.39;50.56
59690;BME280;45557;50.298;18.930;2022-10-18T16:29:19;98829.71;;;17.29;51.00
59690;BME280;45557;50.298;18.930;2022-10-18T16:36:00;98841.60;;;17.19;51.39
59690;BME280;45557;50.298;18.930;2022-10-18T16:42:51;98845.90;;;17.29;53.95
59690;BME280;45557;50.298;18.930;2022-10-18T16:49:35;98847.39;;;17.62;53.65
59690;BME280;45557;50.298;18.930;2022-10-18T16:56:17;98847.09;;;17.88;53.44
59690;BME280;45557;50.298;18.930;2022-10-18T17:02:26;98853.45;;;18.02;53.31
59690;BME280;45557;50.298;18.930;2022-10-18T17:08:35;98853.60;;;18.15;53.13
59690;BME280;45557;50.298;18.930;2022-10-18T17:14:37;98861.73;;;18.23;52.79
59690;BME280;45557;50.298;18.930;2022-10-18T17:20:51;98878.48;;;18.22;51.53
59690;BME280;45557;50.298;18.930;2022-10-18T17:26:19;98882.02;;;18.12;52.40
59690;BME280;45557;50.298;18.930;2022-10-18T17:31:54;98892.77;;;18.10;52.25
59690;BME280;45557;50.298;18.930;2022-10-18T17:37:36;98898.05;;;18.04;52.65
59690;BME280;45557;50.298;18.930;2022-10-18T17:44:13;98897.28;;;17.98;53.19
59690;BME280;45557;50.298;18.930;2022-10-18T17:49:55;98905.32;;;17.94;54.13
59690;BME280;45557;50.298;18.930;2022-10-18T17:56:17;98898.98;;;17.88;54.74
59690;BME280;45557;50.298;18.930;2022-10-18T18:01:48;98901.06;;;17.86;55.37
59690;BME280;45557;50.298;18.930;2022-10-18T18:07:19;98896.48;;;17.88;55.88
59690;BME280;45557;50.298;18.930;2022-10-18T18:13:01;98899.66;;;17.82;56.39
59690;BME280;45557;50.298;18.930;2022-10-18T18:19:44;98899.33;;;17.73;57.31
59690;BME280;45557;50.298;18.930;2022-10-18T18:26:26;98903.80;;;17.72;58.06
59690;BME280;45557;50.298;18.930;2022-10-18T18:33:07;98910.94;;;17.77;58.64
59690;BME280;45557;50.298;18.930;2022-10-18T18:39:49;98916.63;;;17.67;59.53
59690;BME280;45557;50.298;18.930;2022-10-18T18:45:58;98927.15;;;17.55;61.38
59690;BME280;45557;50.298;18.930;2022-10-18T18:51:20;98940.27;;;17.04;67.28
59690;BME280;45557;50.298;18.930;2022-10-18T18:56:43;98958.36;;;16.10;71.92
59690;BME280;45557;50.298;18.930;2022-10-18T19:02:04;98961.28;;;15.33;75.43
59690;BME280;45557;50.298;18.930;2022-10-18T19:07:27;98971.56;;;14.81;77.87
59690;BME280;45557;50.298;18.930;2022-10-18T19:12:49;98986.14;;;14.41;80.78
59690;BME280;45557;50.298;18.930;2022-10-18T19:18:11;98979.67;;;14.06;83.16
59690;BME280;45557;50.298;18.930;2022-10-18T19:23:46;98976.83;;;13.84;84.03
59690;BME280;45557;50.298;18.930;2022-10-18T19:29:13;98976.92;;;13.72;84.77
59690;BME280;45557;50.298;18.930;2022-10-18T19:34:39;98975.85;;;13.60;85.14
59690;BME280;45557;50.298;18.930;2022-10-18T19:40:24;99001.15;;;13.51;85.90
59690;BME280;45557;50.298;18.930;2022-10-18T19:45:51;99011.14;;;13.41;87.19
59690;BME280;45557;50.298;18.930;2022-10-18T19:51:13;99016.63;;;13.34;87.23
59690;BME280;45557;50.298;18.930;2022-10-18T19:57:04;99025.09;;;13.28;88.00
59690;BME280;45557;50.298;18.930;2022-10-18T20:02:27;99041.36;;;13.14;89.28
59690;BME280;45557;50.298;18.930;2022-10-18T20:07:58;99048.15;;;13.00;89.70
59690;BME280;45557;50.298;18.930;2022-10-18T20:13:20;99047.82;;;12.87;89.83
59690;BME280;45557;50.298;18.930;2022-10-18T20:19:06;99064.77;;;12.79;89.96
59690;BME280;45557;50.298;18.930;2022-10-18T20:24:28;99072.40;;;12.69;90.70
59690;BME280;45557;50.298;18.930;2022-10-18T20:30:10;99082.54;;;12.57;91.38
59690;BME280;45557;50.298;18.930;2022-10-18T20:36:09;99080.14;;;12.48;91.69
59690;BME280;45557;50.298;18.930;2022-10-18T20:41:32;99080.69;;;12.38;92.06
59690;BME280;45557;50.298;18.930;2022-10-18T20:46:56;99083.07;;;12.31;91.94
59690;BME280;45557;50.298;18.930;2022-10-18T20:53:12;99092.79;;;12.30;91.93
59690;BME280;45557;50.298;18.930;2022-10-18T20:59:57;99094.80;;;12.38;92.63
59690;BME280;45557;50.298;18.930;2022-10-18T21:06:42;99093.41;;;12.61;92.06
59690;BME280;45557;50.298;18.930;2022-10-18T21:13:27;99092.98;;;12.98;90.45
59690;BME280;45557;50.298;18.930;2022-10-18T21:20:11;99091.13;;;13.37;88.83
59690;BME280;45557;50.298;18.930;2022-10-18T21:26:57;99082.05;;;13.25;86.39
59690;BME280;45557;50.298;18.930;2022-10-18T21:33:41;99075.95;;;12.97;87.11
59690;BME280;45557;50.298;18.930;2022-10-18T21:40:24;99070.64;;;12.74;87.55
59690;BME280;45557;50.298;18.930;2022-10-18T21:47:07;99058.51;;;12.54;88.19
59690;BME280;45557;50.298;18.930;2022-10-18T21:53:51;99052.88;;;12.40;88.67
59690;BME280;45557;50.298;18.930;2022-10-18T22:00:37;99053.39;;;12.25;89.00
59690;BME280;45557;50.298;18.930;2022-10-18T22:07:20;99056.60;;;12.26;88.93
59690;BME280;45557;50.298;18.930;2022-10-18T22:14:03;99053.85;;;12.24;88.86
59690;BME280;45557;50.298;18.930;2022-10-18T22:20:53;99056.28;;;12.26;89.01
59690;BME280;45557;50.298;18.930;2022-10-18T22:27:36;99061.92;;;12.27;89.00
59690;BME280;45557;50.298;18.930;2022-10-18T22:34:25;99063.04;;;12.27;89.57
59690;BME280;45557;50.298;18.930;2022-10-18T22:41:32;99052.08;;;12.31;90.19
59690;BME280;45557;50.298;18.930;2022-10-18T22:53:08;99054.16;;;12.30;90.40
59690;BME280;45557;50.298;18.930;2022-10-18T22:58:37;99046.66;;;12.39;90.21
59690;BME280;45557;50.298;18.930;2022-10-18T23:04:23;99045.83;;;12.57;89.82
59690;BME280;45557;50.298;18.930;2022-10-18T23:10:01;99060.98;;;12.77;89.19
59690;BME280;45557;50.298;18.930;2022-10-18T23:15:38;99064.01;;;12.72;88.63
59690;BME280;45557;50.298;18.930;2022-10-18T23:26:51;99061.70;;;12.82;88.60
59690;BME280;45557;50.298;18.930;2022-10-18T23:32:57;99051.70;;;12.85;88.39
59690;BME280;45557;50.298;18.930;2022-10-18T23:44:21;99054.48;;;13.03;88.09
